sensor_id;sensor_type;location;lat;lon;timestamp;temperature;humidity
56322;DHT22;42227;6.376;-10.782;2023-04-24T00:00:56;28.90;99.90
56322;DHT22;42227;6.376;-10.782;2023-04-24T00:03:25;28.80;99.90
56322;DHT22;42227;6.376;-10.782;2023-04-24T00:05:53;28.80;99.90
56322;DHT22;42227;6.376;-10.782;2023-04-24T00:08:21;28.70;99.90
56322;DHT22;42227;6.376;-10.782;2023-04-24T00:10:50;28.70;99.90
56322;DHT22;42227;6.376;-10.782;2023-04-24T00:13:18;28.80;99.90
56322;DHT22;42227;6.376;-10.782;2023-04-24T00:15:47;28.90;99.90
56322;DHT22;42227;6.376;-10.782;2023-04-24T00:18:15;28.70;99.90
56322;DHT22;42227;6.376;-10.782;2023-04-24T00:20:43;28.60;99.90
56322;DHT22;42227;6.376;-10.782;2023-04-24T00:23:11;28.40;99.90
56322;DHT22;42227;6.376;-10.782;2023-04-24T00:25:40;28.30;99.90
56322;DHT22;42227;6.376;-10.782;2023-04-24T00:28:08;28.30;99.90
56322;DHT22;42227;6.376;-10.782;2023-04-24T00:30:36;28.50;99.90
56322;DHT22;42227;6.376;-10.782;2023-04-24T00:33:04;28.60;99.90
56322;DHT22;42227;6.376;-10.782;2023-04-24T00:35:33;28.70;99.90
56322;DHT22;42227;6.376;-10.782;2023-04-24T00:38:01;28.60;99.90
56322;DHT22;42227;6.376;-10.782;2023-04-24T00:40:29;28.50;99.90
56322;DHT22;42227;6.376;-10.782;2023-04-24T00:42:57;28.60;99.90
56322;DHT22;42227;6.376;-10.782;2023-04-24T00:45:26;28.70;99.90
56322;DHT22;42227;6.376;-10.782;2023-04-24T00:47:54;28.70;99.90
56322;DHT22;42227;6.376;-10.782;2023-04-24T00:50:24;28.60;99.90
56322;DHT22;42227;6.376;-10.782;2023-04-24T00:52:53;28.60;99.90
56322;DHT22;42227;6.376;-10.782;2023-04-24T00:55:21;28.60;99.90
56322;DHT22;42227;6.376;-10.782;2023-04-24T00:57:49;28.60;99.90
56322;DHT22;42227;6.376;-10.782;2023-04-24T01:00:17;28.70;99.90
56322;DHT22;42227;6.376;-10.782;2023-04-24T01:02:47;28.70;99.90
56322;DHT22;42227;6.376;-10.782;2023-04-24T01:05:16;28.80;99.90
56322;DHT22;42227;6.376;-10.782;2023-04-24T01:07:46;28.70;99.90
56322;DHT22;42227;6.376;-10.782;2023-04-24T01:10:14;28.70;99.90
56322;DHT22;42227;6.376;-10.782;2023-04-24T01:12:45;28.70;99.90
56322;DHT22;42227;6.376;-10.782;2023-04-24T01:15:13;28.70;99.90
56322;DHT22;42227;6.376;-10.782;2023-04-24T01:17:42;28.70;99.90
56322;DHT22;42227;6.376;-10.782;2023-04-24T01:20:10;28.70;99.90
56322;DHT22;42227;6.376;-10.782;2023-04-24T01:22:41;28.80;99.90
56322;DHT22;42227;6.376;-10.782;2023-04-24T01:25:09;28.70;99.90
56322;DHT22;42227;6.376;-10.782;2023-04-24T01:27:38;28.70;99.90
56322;DHT22;42227;6.376;-10.782;2023-04-24T01:30:07;28.70;99.90
56322;DHT22;42227;6.376;-10.782;2023-04-24T01:32:36;28.80;99.90
56322;DHT22;42227;6.376;-10.782;2023-04-24T01:35:05;28.90;99.90
56322;DHT22;42227;6.376;-10.782;2023-04-24T01:37:33;28.90;99.90
56322;DHT22;42227;6.376;-10.782;2023-04-24T01:40:07;28.90;99.90
56322;DHT22;42227;6.376;-10.782;2023-04-24T01:42:36;28.80;99.90
56322;DHT22;42227;6.376;-10.782;2023-04-24T01:45:05;28.60;99.90
56322;DHT22;42227;6.376;-10.782;2023-04-24T01:47:33;28.40;99.90
56322;DHT22;42227;6.376;-10.782;2023-04-24T01:50:03;28.30;99.90
56322;DHT22;42227;6.376;-10.782;2023-04-24T01:52:31;28.30;99.90
56322;DHT22;42227;6.376;-10.782;2023-04-24T01:55:00;28.20;99.90
56322;DHT22;42227;6.376;-10.782;2023-04-24T01:57:29;28.20;99.90
56322;DHT22;42227;6.376;-10.782;2023-04-24T01:59:57;28.30;99.90
56322;DHT22;42227;6.376;-10.782;2023-04-24T02:02:26;28.40;99.90
56322;DHT22;42227;6.376;-10.782;2023-04-24T02:04:57;28.70;99.90
56322;DHT22;42227;6.376;-10.782;2023-04-24T02:07:25;28.80;99.90
56322;DHT22;42227;6.376;-10.782;2023-04-24T02:09:53;28.60;99.90
56322;DHT22;42227;6.376;-10.782;2023-04-24T02:12:21;28.40;99.90
56322;DHT22;42227;6.376;-10.782;2023-04-24T02:14:51;28.30;99.90
56322;DHT22;42227;6.376;-10.782;2023-04-24T02:17:19;28.20;99.90
56322;DHT22;42227;6.376;-10.782;2023-04-24T02:19:48;28.30;99.90
56322;DHT22;42227;6.376;-10.782;2023-04-24T02:22:16;28.40;99.90
56322;DHT22;42227;6.376;-10.782;2023-04-24T02:24:45;28.70;99.90
56322;DHT22;42227;6.376;-10.782;2023-04-24T02:27:15;28.80;99.90
56322;DHT22;42227;6.376;-10.782;2023-04-24T02:29:43;28.90;99.90
56322;DHT22;42227;6.376;-10.782;2023-04-24T02:32:12;29.00;99.90
56322;DHT22;42227;6.376;-10.782;2023-04-24T02:34:43;28.90;99.90
56322;DHT22;42227;6.376;-10.782;2023-04-24T02:37:12;29.00;99.90
56322;DHT22;42227;6.376;-10.782;2023-04-24T02:39:40;29.20;99.90
56322;DHT22;42227;6.376;-10.782;2023-04-24T02:42:09;29.20;99.90
56322;DHT22;42227;6.376;-10.782;2023-04-24T02:44:37;29.00;99.90
56322;DHT22;42227;6.376;-10.782;2023-04-24T02:47:06;28.80;99.90
56322;DHT22;42227;6.376;-10.782;2023-04-24T02:49:34;28.80;99.90
56322;DHT22;42227;6.376;-10.782;2023-04-24T02:52:02;28.70;99.90
56322;DHT22;42227;6.376;-10.782;2023-04-24T02:54:30;28.70;99.90
56322;DHT22;42227;6.376;-10.782;2023-04-24T02:56:59;28.80;99.90
56322;DHT22;42227;6.376;-10.782;2023-04-24T02:59:27;28.90;99.90
56322;DHT22;42227;6.376;-10.782;2023-04-24T03:01:55;29.00;99.90
56322;DHT22;42227;6.376;-10.782;2023-04-24T03:04:24;28.90;99.90
56322;DHT22;42227;6.376;-10.782;2023-04-24T03:06:52;28.80;99.90
56322;DHT22;42227;6.376;-10.782;2023-04-24T03:09:21;28.80;99.90
56322;DHT22;42227;6.376;-10.782;2023-04-24T03:11:49;28.80;99.90
56322;DHT22;42227;6.376;-10.782;2023-04-24T03:14:18;28.60;99.90
56322;DHT22;42227;6.376;-10.782;2023-04-24T03:16:46;28.40;99.90
56322;DHT22;42227;6.376;-10.782;2023-04-24T03:19:14;28.20;99.90
56322;DHT22;42227;6.376;-10.782;2023-04-24T03:21:57;27.90;99.90
56322;DHT22;42227;6.376;-10.782;2023-04-24T03:24:25;27.80;99.90
56322;DHT22;42227;6.376;-10.782;2023-04-24T03:26:54;27.90;99.90
56322;DHT22;42227;6.376;-10.782;2023-04-24T03:29:43;27.70;99.90
56322;DHT22;42227;6.376;-10.782;2023-04-24T03:32:12;27.90;99.90
56322;DHT22;42227;6.376;-10.782;2023-04-24T03:34:40;27.90;99.90
56322;DHT22;42227;6.376;-10.782;2023-04-24T03:37:11;27.40;99.90
56322;DHT22;42227;6.376;-10.782;2023-04-24T03:39:45;27.20;99.90
56322;DHT22;42227;6.376;-10.782;2023-04-24T03:42:15;27.10;99.90
56322;DHT22;42227;6.376;-10.782;2023-04-24T03:44:51;27.20;99.90
56322;DHT22;42227;6.376;-10.782;2023-04-24T03:47:23;27.30;99.90
56322;DHT22;42227;6.376;-10.782;2023-04-24T03:49:55;27.50;99.90
56322;DHT22;42227;6.376;-10.782;2023-04-24T03:52:23;27.40;99.90
56322;DHT22;42227;6.376;-10.782;2023-04-24T03:54:52;27.30;99.90
56322;DHT22;42227;6.376;-10.782;2023-04-24T03:57:20;27.30;99.90
56322;DHT22;42227;6.376;-10.782;2023-04-24T04:00:01;27.40;99.90
56322;DHT22;42227;6.376;-10.782;2023-04-24T04:02:40;27.30;99.90
56322;DHT22;42227;6.376;-10.782;2023-04-24T04:05:09;27.00;99.90
56322;DHT22;42227;6.376;-10.782;2023-04-24T04:07:38;26.90;99.90
56322;DHT22;42227;6.376;-10.782;2023-04-24T04:10:07;26.90;99.90
56322;DHT22;42227;6.376;-10.782;2023-04-24T04:12:37;27.10;99.90
56322;DHT22;42227;6.376;-10.782;2023-04-24T04:15:06;27.30;99.90
56322;DHT22;42227;6.376;-10.782;2023-04-24T04:17:34;27.40;99.90
56322;DHT22;42227;6.376;-10.782;2023-04-24T04:20:06;27.50;99.90
56322;DHT22;42227;6.376;-10.782;2023-04-24T04:22:34;27.40;99.90
56322;DHT22;42227;6.376;-10.782;2023-04-24T04:25:04;27.40;99.90
56322;DHT22;42227;6.376;-10.782;2023-04-24T04:27:33;27.40;99.90
56322;DHT22;42227;6.376;-10.782;2023-04-24T04:30:07;27.40;99.90
56322;DHT22;42227;6.376;-10.782;2023-04-24T04:32:46;27.50;99.90
56322;DHT22;42227;6.376;-10.782;2023-04-24T04:35:14;27.50;99.90
56322;DHT22;42227;6.376;-10.782;2023-04-24T04:37:43;27.60;99.90
56322;DHT22;42227;6.376;-10.782;2023-04-24T04:40:17;27.40;99.90
56322;DHT22;42227;6.376;-10.782;2023-04-24T04:42:51;27.30;99.90
56322;DHT22;42227;6.376;-10.782;2023-04-24T04:45:20;27.40;99.90
56322;DHT22;42227;6.376;-10.782;2023-04-24T04:48:08;27.50;99.90
56322;DHT22;42227;6.376;-10.782;2023-04-24T04:50:37;27.50;99.90
56322;DHT22;42227;6.376;-10.782;2023-04-24T04:53:07;27.40;99.90
56322;DHT22;42227;6.376;-10.782;2023-04-24T04:55:38;27.00;99.90
56322;DHT22;42227;6.376;-10.782;2023-04-24T04:58:13;26.80;99.90
56322;DHT22;42227;6.376;-10.782;2023-04-24T05:00:43;26.60;99.90
56322;DHT22;42227;6.376;-10.782;2023-04-24T05:03:28;26.50;99.90
56322;DHT22;42227;6.376;-10.782;2023-04-24T05:06:06;26.50;99.90
56322;DHT22;42227;6.376;-10.782;2023-04-24T05:08:37;26.60;99.90
56322;DHT22;42227;6.376;-10.782;2023-04-24T05:11:09;26.80;99.90
56322;DHT22;42227;6.376;-10.782;2023-04-24T05:13:39;26.80;99.90
56322;DHT22;42227;6.376;-10.782;2023-04-24T05:16:30;26.90;99.90
56322;DHT22;42227;6.376;-10.782;2023-04-24T05:18:59;26.80;99.90
56322;DHT22;42227;6.376;-10.782;2023-04-24T05:21:33;26.80;99.90
56322;DHT22;42227;6.376;-10.782;2023-04-24T05:24:02;26.90;99.90
56322;DHT22;42227;6.376;-10.782;2023-04-24T05:27:03;27.00;99.90
56322;DHT22;42227;6.376;-10.782;2023-04-24T05:29:39;27.20;99.90
56322;DHT22;42227;6.376;-10.782;2023-04-24T05:32:09;27.50;99.90
56322;DHT22;42227;6.376;-10.782;2023-04-24T05:34:37;27.20;99.90
56322;DHT22;42227;6.376;-10.782;2023-04-24T05:37:06;27.10;99.90
56322;DHT22;42227;6.376;-10.782;2023-04-24T05:39:34;26.90;99.90
56322;DHT22;42227;6.376;-10.782;2023-04-24T05:42:03;26.80;99.90
56322;DHT22;42227;6.376;-10.782;2023-04-24T05:44:31;26.60;99.90
56322;DHT22;42227;6.376;-10.782;2023-04-24T05:47:00;26.80;99.90
56322;DHT22;42227;6.376;-10.782;2023-04-24T05:49:28;27.10;99.90
56322;DHT22;42227;6.376;-10.782;2023-04-24T05:51:57;27.40;99.90
56322;DHT22;42227;6.376;-10.782;2023-04-24T05:54:25;27.20;99.90
56322;DHT22;42227;6.376;-10.782;2023-04-24T05:56:55;27.00;99.90
56322;DHT22;42227;6.376;-10.782;2023-04-24T05:59:38;26.80;99.90
56322;DHT22;42227;6.376;-10.782;2023-04-24T06:02:07;26.80;99.90
56322;DHT22;42227;6.376;-10.782;2023-04-24T06:04:35;26.80;99.90
56322;DHT22;42227;6.376;-10.782;2023-04-24T06:07:04;26.60;99.90
56322;DHT22;42227;6.376;-10.782;2023-04-24T06:09:32;26.70;99.90
56322;DHT22;42227;6.376;-10.782;2023-04-24T06:12:01;26.50;99.90
56322;DHT22;42227;6.376;-10.782;2023-04-24T06:14:43;26.60;99.90
56322;DHT22;42227;6.376;-10.782;2023-04-24T06:17:18;26.60;99.90
56322;DHT22;42227;6.376;-10.782;2023-04-24T06:19:47;26.50;99.90
56322;DHT22;42227;6.376;-10.782;2023-04-24T06:22:16;26.50;99.90
56322;DHT22;42227;6.376;-10.782;2023-04-24T06:24:44;26.60;99.90
56322;DHT22;42227;6.376;-10.782;2023-04-24T06:27:13;26.70;99.90
56322;DHT22;42227;6.376;-10.782;2023-04-24T06:29:42;26.50;99.90
56322;DHT22;42227;6.376;-10.782;2023-04-24T06:32:11;26.30;99.90
56322;DHT22;42227;6.376;-10.782;2023-04-24T06:34:39;26.10;99.90
56322;DHT22;42227;6.376;-10.782;2023-04-24T06:37:07;26.20;99.90
56322;DHT22;42227;6.376;-10.782;2023-04-24T06:39:35;26.40;99.90
56322;DHT22;42227;6.376;-10.782;2023-04-24T06:42:04;26.40;99.90
56322;DHT22;42227;6.376;-10.782;2023-04-24T06:44:34;26.80;99.90
56322;DHT22;42227;6.376;-10.782;2023-04-24T06:47:02;26.30;99.90
56322;DHT22;42227;6.376;-10.782;2023-04-24T06:49:30;26.40;99.90
56322;DHT22;42227;6.376;-10.782;2023-04-24T06:51:59;26.10;99.90
56322;DHT22;42227;6.376;-10.782;2023-04-24T06:54:27;26.10;99.90
56322;DHT22;42227;6.376;-10.782;2023-04-24T06:56:56;26.30;99.90
56322;DHT22;42227;6.376;-10.782;2023-04-24T06:59:25;26.60;99.90
56322;DHT22;42227;6.376;-10.782;2023-04-24T07:01:54;27.00;99.90
56322;DHT22;42227;6.376;-10.782;2023-04-24T07:04:23;26.80;99.90
56322;DHT22;42227;6.376;-10.782;2023-04-24T07:06:51;26.80;99.90
56322;DHT22;42227;6.376;-10.782;2023-04-24T07:09:20;26.70;99.90
56322;DHT22;42227;6.376;-10.782;2023-04-24T07:11:48;26.60;99.90
56322;DHT22;42227;6.376;-10.782;2023-04-24T07:14:16;27.40;99.90
56322;DHT22;42227;6.376;-10.782;2023-04-24T07:16:45;27.50;99.90
56322;DHT22;42227;6.376;-10.782;2023-04-24T07:19:13;28.30;99.90
56322;DHT22;42227;6.376;-10.782;2023-04-24T07:21:42;27.80;99.90
56322;DHT22;42227;6.376;-10.782;2023-04-24T07:24:10;27.90;99.90
56322;DHT22;42227;6.376;-10.782;2023-04-24T07:26:38;28.00;99.90
56322;DHT22;42227;6.376;-10.782;2023-04-24T07:29:07;28.00;99.90
56322;DHT22;42227;6.376;-10.782;2023-04-24T07:31:36;28.30;99.90
56322;DHT22;42227;6.376;-10.782;2023-04-24T07:34:04;28.40;99.90
56322;DHT22;42227;6.376;-10.782;2023-04-24T07:36:33;28.10;99.90
56322;DHT22;42227;6.376;-10.782;2023-04-24T07:39:01;27.50;99.90
56322;DHT22;42227;6.376;-10.782;2023-04-24T07:41:29;27.80;99.90
56322;DHT22;42227;6.376;-10.782;2023-04-24T07:48:24;29.20;99.90
56322;DHT22;42227;6.376;-10.782;2023-04-24T07:50:53;29.80;99.90
56322;DHT22;42227;6.376;-10.782;2023-04-24T07:53:21;30.40;99.90
56322;DHT22;42227;6.376;-10.782;2023-04-24T07:55:50;30.70;99.90
56322;DHT22;42227;6.376;-10.782;2023-04-24T07:58:18;30.70;99.90
56322;DHT22;42227;6.376;-10.782;2023-04-24T08:00:46;30.90;99.90
56322;DHT22;42227;6.376;-10.782;2023-04-24T08:03:15;31.10;99.90
56322;DHT22;42227;6.376;-10.782;2023-04-24T08:05:43;31.80;99.90
56322;DHT22;42227;6.376;-10.782;2023-04-24T08:08:11;32.40;99.90
56322;DHT22;42227;6.376;-10.782;2023-04-24T08:10:40;33.40;99.90
56322;DHT22;42227;6.376;-10.782;2023-04-24T08:13:08;33.80;99.60
56322;DHT22;42227;6.376;-10.782;2023-04-24T08:15:36;33.90;99.70
56322;DHT22;42227;6.376;-10.782;2023-04-24T08:18:05;35.10;96.00
56322;DHT22;42227;6.376;-10.782;2023-04-24T08:20:34;33.80;98.30
56322;DHT22;42227;6.376;-10.782;2023-04-24T08:23:02;33.30;99.90
56322;DHT22;42227;6.376;-10.782;2023-04-24T08:25:30;33.80;99.40
56322;DHT22;42227;6.376;-10.782;2023-04-24T08:27:58;35.00;97.00
56322;DHT22;42227;6.376;-10.782;2023-04-24T08:30:27;35.90;93.40
56322;DHT22;42227;6.376;-10.782;2023-04-24T08:32:55;36.50;91.80
56322;DHT22;42227;6.376;-10.782;2023-04-24T08:35:24;35.90;93.10
56322;DHT22;42227;6.376;-10.782;2023-04-24T08:37:53;35.50;93.00
56322;DHT22;42227;6.376;-10.782;2023-04-24T08:40:27;35.00;95.90
56322;DHT22;42227;6.376;-10.782;2023-04-24T08:42:56;36.10;94.80
56322;DHT22;42227;6.376;-10.782;2023-04-24T08:45:24;36.10;92.30
56322;DHT22;42227;6.376;-10.782;2023-04-24T08:47:53;37.60;88.90
56322;DHT22;42227;6.376;-10.782;2023-04-24T08:50:22;38.10;84.70
56322;DHT22;42227;6.376;-10.782;2023-04-24T08:52:51;38.20;82.20
56322;DHT22;42227;6.376;-10.782;2023-04-24T08:55:20;38.00;85.50
56322;DHT22;42227;6.376;-10.782;2023-04-24T08:57:53;38.90;80.40
56322;DHT22;42227;6.376;-10.782;2023-04-24T09:00:21;39.20;76.40
56322;DHT22;42227;6.376;-10.782;2023-04-24T09:02:50;39.60;74.60
56322;DHT22;42227;6.376;-10.782;2023-04-24T09:05:20;39.20;75.10
56322;DHT22;42227;6.376;-10.782;2023-04-24T09:07:56;38.90;77.70
56322;DHT22;42227;6.376;-10.782;2023-04-24T09:10:25;38.70;79.00
56322;DHT22;42227;6.376;-10.782;2023-04-24T09:12:54;39.90;71.60
56322;DHT22;42227;6.376;-10.782;2023-04-24T09:15:23;40.40;69.70
56322;DHT22;42227;6.376;-10.782;2023-04-24T09:17:52;40.90;67.10
56322;DHT22;42227;6.376;-10.782;2023-04-24T09:20:21;40.20;69.40
56322;DHT22;42227;6.376;-10.782;2023-04-24T09:22:54;39.30;74.30
56322;DHT22;42227;6.376;-10.782;2023-04-24T09:25:31;39.50;73.50
56322;DHT22;42227;6.376;-10.782;2023-04-24T09:28:04;38.70;78.60
56322;DHT22;42227;6.376;-10.782;2023-04-24T09:30:33;39.50;73.60
56322;DHT22;42227;6.376;-10.782;2023-04-24T09:33:14;39.10;75.40
56322;DHT22;42227;6.376;-10.782;2023-04-24T09:35:51;37.80;82.40
56322;DHT22;42227;6.376;-10.782;2023-04-24T09:38:37;37.80;85.60
56322;DHT22;42227;6.376;-10.782;2023-04-24T09:41:07;37.30;89.80
56322;DHT22;42227;6.376;-10.782;2023-04-24T09:43:36;35.60;95.10
56322;DHT22;42227;6.376;-10.782;2023-04-24T09:46:06;35.40;96.20
56322;DHT22;42227;6.376;-10.782;2023-04-24T09:48:38;34.70;97.20
56322;DHT22;42227;6.376;-10.782;2023-04-24T09:51:07;35.20;97.10
56322;DHT22;42227;6.376;-10.782;2023-04-24T09:53:35;35.10;96.60
56322;DHT22;42227;6.376;-10.782;2023-04-24T09:56:11;35.20;96.90
56322;DHT22;42227;6.376;-10.782;2023-04-24T09:58:40;35.10;98.70
56322;DHT22;42227;6.376;-10.782;2023-04-24T10:01:08;35.80;95.50
56322;DHT22;42227;6.376;-10.782;2023-04-24T10:03:36;35.50;94.10
56322;DHT22;42227;6.376;-10.782;2023-04-24T10:06:05;34.60;97.20
56322;DHT22;42227;6.376;-10.782;2023-04-24T10:08:37;35.20;97.50
56322;DHT22;42227;6.376;-10.782;2023-04-24T10:11:05;35.60;95.80
56322;DHT22;42227;6.376;-10.782;2023-04-24T10:13:34;35.50;96.10
56322;DHT22;42227;6.376;-10.782;2023-04-24T10:16:03;35.60;95.00
56322;DHT22;42227;6.376;-10.782;2023-04-24T10:18:32;35.00;97.20
56322;DHT22;42227;6.376;-10.782;2023-04-24T10:21:01;34.90;97.70
56322;DHT22;42227;6.376;-10.782;2023-04-24T10:23:30;34.60;99.20
56322;DHT22;42227;6.376;-10.782;2023-04-24T10:26:00;34.20;99.90
56322;DHT22;42227;6.376;-10.782;2023-04-24T10:28:30;33.80;99.90
56322;DHT22;42227;6.376;-10.782;2023-04-24T10:31:00;33.50;99.90
56322;DHT22;42227;6.376;-10.782;2023-04-24T10:33:30;33.70;99.90
56322;DHT22;42227;6.376;-10.782;2023-04-24T10:35:59;34.10;99.90
56322;DHT22;42227;6.376;-10.782;2023-04-24T10:38:29;33.70;99.90
56322;DHT22;42227;6.376;-10.782;2023-04-24T10:41:08;33.60;99.90
56322;DHT22;42227;6.376;-10.782;2023-04-24T10:43:36;33.50;99.90
56322;DHT22;42227;6.376;-10.782;2023-04-24T10:46:07;33.30;99.90
56322;DHT22;42227;6.376;-10.782;2023-04-24T10:48:42;33.20;99.90
56322;DHT22;42227;6.376;-10.782;2023-04-24T10:51:12;33.50;99.90
56322;DHT22;42227;6.376;-10.782;2023-04-24T10:53:40;33.50;99.90
56322;DHT22;42227;6.376;-10.782;2023-04-24T10:56:09;33.60;99.90
56322;DHT22;42227;6.376;-10.782;2023-04-24T10:58:51;33.30;99.90
56322;DHT22;42227;6.376;-10.782;2023-04-24T11:01:29;33.30;99.90
56322;DHT22;42227;6.376;-10.782;2023-04-24T11:03:59;33.50;99.90
56322;DHT22;42227;6.376;-10.782;2023-04-24T11:06:36;33.50;99.90
56322;DHT22;42227;6.376;-10.782;2023-04-24T11:09:09;32.90;99.90
56322;DHT22;42227;6.376;-10.782;2023-04-24T11:11:38;33.10;99.90
56322;DHT22;42227;6.376;-10.782;2023-04-24T11:14:14;33.40;99.90
56322;DHT22;42227;6.376;-10.782;2023-04-24T11:16:45;34.10;99.90
56322;DHT22;42227;6.376;-10.782;2023-04-24T11:22:06;34.00;99.90
56322;DHT22;42227;6.376;-10.782;2023-04-24T11:27:22;34.10;99.90
56322;DHT22;42227;6.376;-10.782;2023-04-24T11:35:29;33.30;99.90
56322;DHT22;42227;6.376;-10.782;2023-04-24T11:37:57;33.30;99.90
56322;DHT22;42227;6.376;-10.782;2023-04-24T11:40:28;33.00;99.90
56322;DHT22;42227;6.376;-10.782;2023-04-24T11:43:00;33.00;99.90
56322;DHT22;42227;6.376;-10.782;2023-04-24T11:45:30;32.70;99.90
56322;DHT22;42227;6.376;-10.782;2023-04-24T11:47:58;32.80;99.90
56322;DHT22;42227;6.376;-10.782;2023-04-24T11:50:27;32.80;99.90
56322;DHT22;42227;6.376;-10.782;2023-04-24T11:52:56;32.70;99.90
56322;DHT22;42227;6.376;-10.782;2023-04-24T11:55:28;32.80;99.90
56322;DHT22;42227;6.376;-10.782;2023-04-24T11:57:58;33.10;99.90
56322;DHT22;42227;6.376;-10.782;2023-04-24T12:00:31;32.70;99.90
56322;DHT22;42227;6.376;-10.782;2023-04-24T12:03:10;33.10;99.90
56322;DHT22;42227;6.376;-10.782;2023-04-24T12:05:39;33.10;99.90
56322;DHT22;42227;6.376;-10.782;2023-04-24T12:08:08;33.10;99.90
56322;DHT22;42227;6.376;-10.782;2023-04-24T12:10:36;33.30;99.90
56322;DHT22;42227;6.376;-10.782;2023-04-24T12:13:05;33.60;99.90
56322;DHT22;42227;6.376;-10.782;2023-04-24T12:15:33;33.90;99.90
56322;DHT22;42227;6.376;-10.782;2023-04-24T12:18:03;34.00;99.90
56322;DHT22;42227;6.376;-10.782;2023-04-24T12:20:32;33.90;99.90
56322;DHT22;42227;6.376;-10.782;2023-04-24T12:23:01;33.60;99.90
56322;DHT22;42227;6.376;-10.782;2023-04-24T12:25:31;33.70;99.90
56322;DHT22;42227;6.376;-10.782;2023-04-24T12:30:34;34.20;98.10
56322;DHT22;42227;6.376;-10.782;2023-04-24T12:33:03;34.50;99.00
56322;DHT22;42227;6.376;-10.782;2023-04-24T12:35:32;34.80;96.50
56322;DHT22;42227;6.376;-10.782;2023-04-24T12:38:11;35.00;96.90
56322;DHT22;42227;6.376;-10.782;2023-04-24T12:40:43;34.60;97.10
56322;DHT22;42227;6.376;-10.782;2023-04-24T12:43:15;34.70;97.40
56322;DHT22;42227;6.376;-10.782;2023-04-24T12:45:44;35.00;96.10
56322;DHT22;42227;6.376;-10.782;2023-04-24T12:48:13;34.90;95.40
56322;DHT22;42227;6.376;-10.782;2023-04-24T12:50:42;35.00;97.70
56322;DHT22;42227;6.376;-10.782;2023-04-24T12:53:14;34.70;98.50
56322;DHT22;42227;6.376;-10.782;2023-04-24T12:55:43;34.50;99.90
56322;DHT22;42227;6.376;-10.782;2023-04-24T12:58:11;34.80;99.70
56322;DHT22;42227;6.376;-10.782;2023-04-24T13:00:39;34.40;99.60
56322;DHT22;42227;6.376;-10.782;2023-04-24T13:03:08;34.40;99.90
56322;DHT22;42227;6.376;-10.782;2023-04-24T13:05:36;34.40;96.90
56322;DHT22;42227;6.376;-10.782;2023-04-24T13:08:05;34.70;99.10
56322;DHT22;42227;6.376;-10.782;2023-04-24T13:10:33;34.00;99.90
56322;DHT22;42227;6.376;-10.782;2023-04-24T13:13:02;34.20;99.90
56322;DHT22;42227;6.376;-10.782;2023-04-24T13:15:30;34.40;99.90
56322;DHT22;42227;6.376;-10.782;2023-04-24T13:17:59;34.50;99.90
56322;DHT22;42227;6.376;-10.782;2023-04-24T13:20:27;34.50;99.00
56322;DHT22;42227;6.376;-10.782;2023-04-24T13:22:55;34.40;99.90
56322;DHT22;42227;6.376;-10.782;2023-04-24T13:25:24;34.30;99.90
56322;DHT22;42227;6.376;-10.782;2023-04-24T13:27:52;34.40;99.10
56322;DHT22;42227;6.376;-10.782;2023-04-24T13:30:20;34.50;99.90
56322;DHT22;42227;6.376;-10.782;2023-04-24T13:32:48;34.50;99.90
56322;DHT22;42227;6.376;-10.782;2023-04-24T13:35:17;34.30;99.90
56322;DHT22;42227;6.376;-10.782;2023-04-24T13:37:45;34.60;99.90
56322;DHT22;42227;6.376;-10.782;2023-04-24T13:40:13;34.40;99.90
56322;DHT22;42227;6.376;-10.782;2023-04-24T13:42:42;34.20;99.90
56322;DHT22;42227;6.376;-10.782;2023-04-24T13:45:14;34.20;99.90
56322;DHT22;42227;6.376;-10.782;2023-04-24T13:47:52;34.20;99.90
56322;DHT22;42227;6.376;-10.782;2023-04-24T13:50:20;34.00;99.90
56322;DHT22;42227;6.376;-10.782;2023-04-24T13:52:49;33.60;99.90
56322;DHT22;42227;6.376;-10.782;2023-04-24T13:55:17;34.00;99.90
56322;DHT22;42227;6.376;-10.782;2023-04-24T13:57:50;33.60;99.90
56322;DHT22;42227;6.376;-10.782;2023-04-24T14:00:18;33.40;99.90
56322;DHT22;42227;6.376;-10.782;2023-04-24T14:02:47;33.70;99.90
56322;DHT22;42227;6.376;-10.782;2023-04-24T14:05:15;33.50;99.90
56322;DHT22;42227;6.376;-10.782;2023-04-24T14:07:43;33.20;99.90
56322;DHT22;42227;6.376;-10.782;2023-04-24T14:10:13;33.30;99.90
56322;DHT22;42227;6.376;-10.782;2023-04-24T14:12:42;33.30;99.90
56322;DHT22;42227;6.376;-10.782;2023-04-24T14:15:11;33.10;99.90
56322;DHT22;42227;6.376;-10.782;2023-04-24T14:17:39;33.10;99.90
56322;DHT22;42227;6.376;-10.782;2023-04-24T14:20:09;33.50;99.90
56322;DHT22;42227;6.376;-10.782;2023-04-24T14:22:37;34.00;99.90
56322;DHT22;42227;6.376;-10.782;2023-04-24T14:25:06;34.00;99.90
56322;DHT22;42227;6.376;-10.782;2023-04-24T14:27:34;33.80;99.90
56322;DHT22;42227;6.376;-10.782;2023-04-24T14:30:03;34.00;99.90
56322;DHT22;42227;6.376;-10.782;2023-04-24T14:32:32;34.10;99.70
56322;DHT22;42227;6.376;-10.782;2023-04-24T14:35:01;33.70;99.90
56322;DHT22;42227;6.376;-10.782;2023-04-24T14:37:29;33.10;99.90
56322;DHT22;42227;6.376;-10.782;2023-04-24T14:39:57;33.30;99.90
56322;DHT22;42227;6.376;-10.782;2023-04-24T14:42:46;33.70;99.90
56322;DHT22;42227;6.376;-10.782;2023-04-24T14:45:18;33.60;99.90
56322;DHT22;42227;6.376;-10.782;2023-04-24T14:47:46;33.10;99.90
56322;DHT22;42227;6.376;-10.782;2023-04-24T14:50:15;32.90;99.90
56322;DHT22;42227;6.376;-10.782;2023-04-24T14:52:43;33.10;99.90
56322;DHT22;42227;6.376;-10.782;2023-04-24T14:55:14;33.10;99.90
56322;DHT22;42227;6.376;-10.782;2023-04-24T14:57:42;33.60;99.90
56322;DHT22;42227;6.376;-10.782;2023-04-24T15:00:13;33.80;99.90
56322;DHT22;42227;6.376;-10.782;2023-04-24T15:02:42;33.90;99.90
56322;DHT22;42227;6.376;-10.782;2023-04-24T15:05:10;33.80;99.90
56322;DHT22;42227;6.376;-10.782;2023-04-24T15:07:39;34.00;99.90
56322;DHT22;42227;6.376;-10.782;2023-04-24T15:10:08;34.30;99.90
56322;DHT22;42227;6.376;-10.782;2023-04-24T15:12:36;33.80;99.90
56322;DHT22;42227;6.376;-10.782;2023-04-24T15:15:05;34.00;99.90
56322;DHT22;42227;6.376;-10.782;2023-04-24T15:17:34;34.00;99.60
56322;DHT22;42227;6.376;-10.782;2023-04-24T15:20:02;34.00;98.70
56322;DHT22;42227;6.376;-10.782;2023-04-24T15:22:30;34.00;98.30
56322;DHT22;42227;6.376;-10.782;2023-04-24T15:24:59;33.90;98.80
56322;DHT22;42227;6.376;-10.782;2023-04-24T15:27:27;34.20;98.70
56322;DHT22;42227;6.376;-10.782;2023-04-24T15:29:55;34.20;99.30
56322;DHT22;42227;6.376;-10.782;2023-04-24T15:32:24;34.20;98.60
56322;DHT22;42227;6.376;-10.782;2023-04-24T15:34:52;34.40;99.00
56322;DHT22;42227;6.376;-10.782;2023-04-24T15:37:34;34.20;99.10
56322;DHT22;42227;6.376;-10.782;2023-04-24T15:40:03;34.00;99.50
56322;DHT22;42227;6.376;-10.782;2023-04-24T15:42:31;33.70;99.90
56322;DHT22;42227;6.376;-10.782;2023-04-24T15:45:00;33.20;99.90
56322;DHT22;42227;6.376;-10.782;2023-04-24T15:47:28;32.70;99.90
56322;DHT22;42227;6.376;-10.782;2023-04-24T15:49:57;32.60;99.90